Time;durP1;ratioP1;P1;durP2;ratioP2;P2;SDS_P1;SDS_P2;PMS_P1;PMS_P2;Temp;Humidity;BMP_temperature;BMP_pressure;BME280_temperature;BME280_humidity;BME280_pressure;Samples;Min_cycle;Max_cycle;Signal;HPM_P1;HPM_P2
2022/07/18 00:00:19;;;;;;;3.47;2.50;;;17.40;99.90;;;;;;5106523;28;20059;-77
2022/07/18 00:02:45;;;;;;;3.60;2.80;;;17.40;99.90;;;;;;5113794;28;20043;-76
2022/07/18 00:05:11;;;;;;;4.75;2.85;;;17.40;99.90;;;;;;5113412;28;20024;-77
2022/07/18 00:07:37;;;;;;;6.43;3.30;;;17.40;99.90;;;;;;5110961;28;20174;-77
2022/07/18 00:10:03;;;;;;;4.80;2.90;;;17.40;99.90;;;;;;5111189;28;20109;-76
2022/07/18 00:12:29;;;;;;;4.57;3.00;;;17.40;99.90;;;;;;5110786;28;20024;-77
2022/07/18 00:14:54;;;;;;;5.45;3.58;;;17.40;99.90;;;;;;5091987;28;20031;-75
2022/07/18 00:17:20;;;;;;;4.10;2.92;;;17.40;99.90;;;;;;5113412;28;20031;-76
2022/07/18 00:19:46;;;;;;;5.43;3.53;;;17.40;99.90;;;;;;5110833;28;20038;-76
2022/07/18 00:22:11;;;;;;;5.05;2.95;;;17.40;99.90;;;;;;5112319;28;20027;-77
2022/07/18 00:24:37;;;;;;;4.45;2.75;;;17.40;99.90;;;;;;5112949;28;20024;-76
2022/07/18 00:27:04;;;;;;;4.55;2.90;;;17.30;99.90;;;;;;5112575;28;20049;-77
2022/07/18 00:29:30;;;;;;;5.85;3.38;;;17.40;99.90;;;;;;5111050;28;20038;-77
2022/07/18 00:31:55;;;;;;;7.82;3.30;;;17.40;99.90;;;;;;5110852;28;20483;-78
2022/07/18 00:34:21;;;;;;;4.75;2.65;;;17.40;99.90;;;;;;5112668;28;20102;-77
2022/07/18 00:36:47;;;;;;;4.10;2.60;;;17.40;99.90;;;;;;5112552;28;20383;-77
2022/07/18 00:39:16;;;;;;;5.20;2.83;;;17.30;99.90;;;;;;5109009;28;20035;-77
2022/07/18 00:41:46;;;;;;;5.60;2.90;;;17.30;99.90;;;;;;5112235;28;20381;-77
2022/07/18 00:44:19;;;;;;;4.70;2.83;;;17.30;99.90;;;;;;5110615;28;20020;-76
2022/07/18 00:46:45;;;;;;;4.93;2.75;;;17.20;99.90;;;;;;5109982;28;20051;-76
2022/07/18 00:49:11;;;;;;;5.15;2.65;;;17.20;99.90;;;;;;5109821;28;20027;-76
2022/07/18 00:51:38;;;;;;;6.65;3.38;;;17.20;99.90;;;;;;5110966;28;20039;-77
2022/07/18 00:54:04;;;;;;;4.05;3.15;;;17.20;99.90;;;;;;5112285;28;20027;-76
2022/07/18 00:56:30;;;;;;;5.70;2.78;;;17.20;99.90;;;;;;5110678;28;20130;-77
2022/07/18 00:58:56;;;;;;;4.90;2.92;;;17.20;99.90;;;;;;5110493;28;20553;-77
2022/07/18 01:04:06;;;;;;;4.82;3.05;;;17.20;99.90;;;;;;5108777;28;20372;-75
2022/07/18 01:06:32;;;;;;;5.07;2.90;;;17.20;99.90;;;;;;5107796;28;20024;-76
2022/07/18 01:08:58;;;;;;;4.65;2.63;;;17.10;99.90;;;;;;5112067;28;20141;-78
2022/07/18 01:11:23;;;;;;;5.30;3.47;;;17.10;99.90;;;;;;5093320;28;20030;-77
2022/07/18 01:13:50;;;;;;;5.85;3.10;;;17.10;99.90;;;;;;5108621;28;20483;-77
2022/07/18 01:16:17;;;;;;;7.00;3.60;;;17.10;99.90;;;;;;5114259;28;20028;-77
2022/07/18 01:18:50;;;;;;;4.55;2.95;;;17.10;99.90;;;;;;5111992;28;20054;-78
2022/07/18 01:21:17;;;;;;;4.25;2.90;;;17.00;99.90;;;;;;5110573;28;20055;-77
2022/07/18 01:23:44;;;;;;;6.75;3.10;;;17.00;99.90;;;;;;5109816;28;20034;-76
2022/07/18 01:26:12;;;;;;;7.55;3.40;;;17.00;99.90;;;;;;5107625;28;20042;-77
2022/07/18 01:28:38;;;;;;;6.13;3.10;;;17.00;99.90;;;;;;5110633;28;20393;-77
2022/07/18 01:31:03;;;;;;;9.40;3.15;;;17.00;99.90;;;;;;5111071;28;20225;-77
2022/07/18 01:33:32;;;;;;;6.30;3.05;;;17.00;99.90;;;;;;5110132;28;20104;-78
2022/07/18 01:36:00;;;;;;;5.13;3.17;;;17.00;99.90;;;;;;5108662;28;20030;-76
2022/07/18 01:38:28;;;;;;;5.68;3.15;;;17.00;99.90;;;;;;5109360;28;20027;-77
2022/07/18 01:40:55;;;;;;;5.10;2.95;;;16.90;99.90;;;;;;5110552;28;20022;-76
2022/07/18 01:43:21;;;;;;;4.88;3.25;;;16.90;99.90;;;;;;5109130;28;20403;-76
2022/07/18 01:45:47;;;;;;;6.90;3.55;;;17.00;99.90;;;;;;5115613;28;20027;-77
2022/07/18 01:48:13;;;;;;;8.02;3.10;;;16.90;99.90;;;;;;5114361;28;20047;-77
2022/07/18 01:50:39;;;;;;;5.97;3.45;;;16.90;99.90;;;;;;5108806;28;20494;-76
2022/07/18 01:53:04;;;;;;;6.32;3.40;;;16.90;99.90;;;;;;5107609;28;20085;-77
2022/07/18 01:55:30;;;;;;;5.13;3.03;;;16.90;99.90;;;;;;5107950;28;20491;-78
2022/07/18 01:57:56;;;;;;;6.03;3.10;;;16.90;99.90;;;;;;5109448;28;20028;-77
2022/07/18 02:00:22;;;;;;;7.32;3.20;;;16.90;99.90;;;;;;5108883;28;20031;-79
2022/07/18 02:02:47;;;;;;;4.93;2.88;;;16.90;99.90;;;;;;5110400;28;20027;-77
2022/07/18 02:05:13;;;;;;;7.93;3.38;;;16.90;99.90;;;;;;5106090;28;20043;-77
2022/07/18 02:07:41;;;;;;;4.75;3.28;;;16.90;99.90;;;;;;5109850;28;20487;-78
2022/07/18 02:10:16;;;;;;;6.43;3.42;;;16.90;99.90;;;;;;5107193;28;20030;-76
2022/07/18 02:12:42;;;;;;;9.93;3.50;;;16.90;99.90;;;;;;5108452;28;20024;-76
2022/07/18 02:15:09;;;;;;;5.80;3.03;;;16.90;99.90;;;;;;5109336;28;20368;-76
2022/07/18 02:17:35;;;;;;;4.80;3.45;;;16.90;99.90;;;;;;5107792;28;20156;-77
2022/07/18 02:20:02;;;;;;;9.80;2.90;;;16.90;99.90;;;;;;5108225;28;20027;-77
2022/07/18 02:22:29;;;;;;;6.65;3.40;;;16.90;99.90;;;;;;5106961;28;20054;-76
2022/07/18 02:24:54;;;;;;;6.40;3.20;;;16.90;99.90;;;;;;5106138;28;20164;-76
2022/07/18 02:27:20;;;;;;;5.95;2.92;;;16.90;99.90;;;;;;5106652;28;20098;-77
2022/07/18 02:29:46;;;;;;;3.80;2.80;;;16.90;99.90;;;;;;5105595;28;20016;-77
2022/07/18 02:32:12;;;;;;;7.70;3.38;;;16.90;99.90;;;;;;5105407;28;20032;-77
2022/07/18 02:34:38;;;;;;;5.50;2.95;;;16.90;99.90;;;;;;5106078;28;20459;-75
2022/07/18 02:37:04;;;;;;;8.20;3.42;;;16.90;99.90;;;;;;5090704;28;20515;-77
2022/07/18 02:39:30;;;;;;;6.70;3.65;;;16.80;99.90;;;;;;5088196;28;20021;-77
2022/07/18 02:41:56;;;;;;;5.30;3.00;;;16.80;99.90;;;;;;5103935;28;20054;-78
2022/07/18 02:44:22;;;;;;;5.32;3.40;;;16.80;99.90;;;;;;5107025;28;20020;-77
2022/07/18 02:46:48;;;;;;;4.53;2.78;;;16.80;99.90;;;;;;5105167;28;20144;-77
2022/07/18 02:49:26;;;;;;;6.65;3.22;;;16.80;99.90;;;;;;5107353;28;20261;-77
2022/07/18 02:52:05;;;;;;;5.00;2.97;;;16.70;99.90;;;;;;5110481;28;20416;-77
2022/07/18 02:54:32;;;;;;;5.45;3.40;;;16.70;99.90;;;;;;5105308;28;20024;-76
2022/07/18 02:56:58;;;;;;;8.50;3.38;;;16.70;99.90;;;;;;5104823;28;20020;-78
2022/07/18 02:59:25;;;;;;;4.72;2.88;;;16.60;99.90;;;;;;5107103;28;20235;-77
2022/07/18 03:01:51;;;;;;;6.63;3.42;;;16.60;99.90;;;;;;5104822;28;20514;-77
2022/07/18 03:04:19;;;;;;;6.63;3.40;;;16.70;99.90;;;;;;5105831;28;20028;-78
2022/07/18 03:06:45;;;;;;;6.47;3.50;;;16.70;99.90;;;;;;5106730;28;20027;-76
2022/07/18 03:09:11;;;;;;;7.82;3.40;;;16.60;99.90;;;;;;5100343;28;20027;-77
2022/07/18 03:11:37;;;;;;;4.65;3.08;;;16.70;99.90;;;;;;5087938;28;20024;-77
2022/07/18 03:14:03;;;;;;;8.80;3.60;;;16.60;99.90;;;;;;5105822;28;20038;-77
2022/07/18 03:16:28;;;;;;;9.75;3.25;;;16.60;99.90;;;;;;5110197;28;20636;-78
2022/07/18 03:18:54;;;;;;;8.27;3.55;;;16.70;99.90;;;;;;5110853;28;20054;-76
2022/07/18 03:21:20;;;;;;;8.38;3.13;;;16.60;99.90;;;;;;5110475;28;20387;-76
2022/07/18 03:23:46;;;;;;;6.10;3.28;;;16.60;99.90;;;;;;5112714;28;20027;-76
2022/07/18 03:26:11;;;;;;;5.68;3.67;;;16.60;99.90;;;;;;5111097;28;20031;-78
2022/07/18 03:28:37;;;;;;;9.07;3.55;;;16.60;99.90;;;;;;5112840;28;20593;-76
2022/07/18 03:31:03;;;;;;;5.68;3.65;;;16.60;99.90;;;;;;5112575;28;20033;-76
2022/07/18 03:33:30;;;;;;;5.70;3.33;;;16.60;99.90;;;;;;5112808;28;20027;-75
2022/07/18 03:35:55;;;;;;;5.60;3.35;;;16.60;99.90;;;;;;5112250;28;20023;-76
2022/07/18 03:38:21;;;;;;;6.97;3.28;;;16.60;99.90;;;;;;5111446;28;20050;-76
2022/07/18 03:40:47;;;;;;;6.63;3.42;;;16.60;99.90;;;;;;5112425;28;20494;-76
2022/07/18 03:43:13;;;;;;;6.80;3.30;;;16.60;99.90;;;;;;5114051;28;20020;-76
2022/07/18 03:45:38;;;;;;;8.25;3.53;;;16.60;99.90;;;;;;5114554;28;20167;-78
2022/07/18 03:48:04;;;;;;;10.80;3.40;;;16.60;99.90;;;;;;5116284;28;20070;-77
2022/07/18 03:50:30;;;;;;;4.35;3.08;;;16.60;99.90;;;;;;5117820;28;20024;-77
2022/07/18 03:52:56;;;;;;;6.40;3.47;;;16.60;99.90;;;;;;5119216;28;20028;-77
2022/07/18 03:55:22;;;;;;;5.10;3.55;;;16.60;99.90;;;;;;5119859;28;20027;-77
2022/07/18 03:57:48;;;;;;;6.93;3.78;;;16.60;99.90;;;;;;5125031;28;20039;-77
2022/07/18 04:00:15;;;;;;;5.93;3.90;;;16.60;99.90;;;;;;5128514;28;20030;-76
2022/07/18 04:02:46;;;;;;;4.95;3.58;;;16.60;99.90;;;;;;5122422;28;20076;-78
2022/07/18 04:05:13;;;;;;;6.40;3.80;;;16.60;99.90;;;;;;5112260;28;20444;-77
2022/07/18 04:07:39;;;;;;;7.05;4.07;;;16.60;99.90;;;;;;5114789;28;20392;-77
2022/07/18 04:10:06;;;;;;;6.15;3.97;;;16.60;99.90;;;;;;5095399;28;20035;-78
2022/07/18 04:12:32;;;;;;;11.15;4.05;;;16.60;99.90;;;;;;5111415;28;20403;-76
2022/07/18 04:14:58;;;;;;;7.72;4.47;;;16.70;99.90;;;;;;5112651;28;20033;-77
2022/07/18 04:17:24;;;;;;;4.32;2.80;;;16.60;99.90;;;;;;5112730;28;20050;-77
2022/07/18 04:20:13;;;;;;;5.80;3.78;;;17.00;99.90;;;;;;5110752;28;20022;-77
2022/07/18 04:22:54;;;;;;;8.25;4.10;;;17.20;99.90;;;;;;5099006;28;20483;-77
2022/07/18 04:25:23;;;;;;;5.70;3.70;;;17.00;99.90;;;;;;5110198;28;20501;-77
2022/07/18 04:27:49;;;;;;;7.18;4.10;;;16.90;99.90;;;;;;5109658;28;20421;-77
2022/07/18 04:30:18;;;;;;;5.93;3.78;;;16.90;99.90;;;;;;5112656;28;20050;-78
2022/07/18 04:32:44;;;;;;;5.50;3.50;;;16.80;99.90;;;;;;5111271;28;20111;-75
2022/07/18 04:35:11;;;;;;;8.30;4.20;;;16.80;99.90;;;;;;5109275;28;20111;-77
2022/07/18 04:37:37;;;;;;;6.82;4.10;;;16.80;99.90;;;;;;5111146;28;20164;-76
2022/07/18 04:40:03;;;;;;;5.93;3.70;;;16.80;99.90;;;;;;5112035;28;20525;-77
2022/07/18 04:42:30;;;;;;;8.15;3.92;;;16.80;99.90;;;;;;5110375;28;20047;-77
2022/07/18 04:44:57;;;;;;;6.28;3.85;;;16.80;99.90;;;;;;5112479;28;20020;-77
2022/07/18 04:47:23;;;;;;;7.38;4.00;;;16.80;99.90;;;;;;5110805;28;20396;-78
2022/07/18 04:49:49;;;;;;;6.03;4.05;;;16.80;99.90;;;;;;5109446;28;20170;-77
2022/07/18 04:52:15;;;;;;;6.78;3.97;;;16.80;99.90;;;;;;5111178;28;20030;-77
2022/07/18 04:54:40;;;;;;;6.20;3.58;;;16.80;99.90;;;;;;5111829;28;20019;-77
2022/07/18 04:57:06;;;;;;;7.30;4.90;;;16.80;99.90;;;;;;5112927;28;20079;-79
2022/07/18 04:59:32;;;;;;;7.68;4.40;;;16.70;99.90;;;;;;5114501;28;20077;-78
2022/07/18 05:01:58;;;;;;;10.60;4.47;;;16.60;99.90;;;;;;5112521;28;20439;-76
2022/07/18 05:04:24;;;;;;;6.22;4.15;;;16.70;99.90;;;;;;5110947;28;20089;-77
2022/07/18 05:06:49;;;;;;;5.78;4.00;;;16.60;99.90;;;;;;5112284;28;20487;-76
2022/07/18 05:09:15;;;;;;;6.50;4.05;;;16.60;99.90;;;;;;5113224;28;20398;-77
2022/07/18 05:11:41;;;;;;;6.70;4.07;;;16.70;99.90;;;;;;5094721;28;20030;-76
2022/07/18 05:14:06;;;;;;;6.78;4.45;;;16.60;99.90;;;;;;5113687;28;20419;-77
2022/07/18 05:16:32;;;;;;;7.05;4.45;;;16.70;99.90;;;;;;5093834;28;20043;-78
2022/07/18 05:18:58;;;;;;;9.57;4.32;;;16.70;99.90;;;;;;5112228;28;20027;-78
2022/07/18 05:21:23;;;;;;;6.32;4.22;;;16.80;99.90;;;;;;5113711;28;20615;-78
2022/07/18 05:23:49;;;;;;;9.75;5.10;;;16.80;99.90;;;;;;5117319;28;20023;-77
2022/07/18 05:26:15;;;;;;;7.05;4.55;;;16.80;99.90;;;;;;5113917;28;20031;-78
2022/07/18 05:28:40;;;;;;;8.90;4.93;;;16.80;99.90;;;;;;5112009;28;20046;-78
2022/07/18 05:31:06;;;;;;;8.32;5.18;;;16.90;99.90;;;;;;5111240;28;20034;-77
2022/07/18 05:33:32;;;;;;;7.82;5.20;;;16.80;99.90;;;;;;5111899;28;20023;-77
2022/07/18 05:35:57;;;;;;;16.50;6.47;;;16.80;99.90;;;;;;5111567;28;20019;-78
2022/07/18 05:38:23;;;;;;;11.95;5.43;;;16.90;99.90;;;;;;5110583;28;20035;-77
2022/07/18 05:40:49;;;;;;;8.02;4.78;;;16.90;99.90;;;;;;5111593;28;20092;-78
2022/07/18 05:43:14;;;;;;;6.18;4.53;;;16.90;99.90;;;;;;5093560;28;20045;-75
2022/07/18 05:45:40;;;;;;;9.55;4.75;;;17.00;99.90;;;;;;5110289;28;20038;-76
2022/07/18 05:48:06;;;;;;;8.48;5.22;;;17.00;99.90;;;;;;5110682;28;20476;-76
2022/07/18 05:50:33;;;;;;;7.90;5.28;;;17.10;99.90;;;;;;5111308;28;20031;-78
2022/07/18 05:52:59;;;;;;;9.35;5.18;;;17.10;99.90;;;;;;5110674;28;20028;-76
2022/07/18 05:55:24;;;;;;;10.00;4.88;;;17.10;99.90;;;;;;5110545;28;20341;-77
2022/07/18 05:57:50;;;;;;;8.40;5.35;;;17.20;99.90;;;;;;5111042;28;20106;-76
2022/07/18 06:00:17;;;;;;;7.00;4.50;;;17.20;99.90;;;;;;5112165;28;20028;-75
2022/07/18 06:02:42;;;;;;;6.28;4.95;;;17.30;99.90;;;;;;5111967;28;20080;-76
2022/07/18 06:05:10;;;;;;;5.97;4.32;;;17.40;99.90;;;;;;5109880;28;20016;-76
2022/07/18 06:07:35;;;;;;;8.15;4.45;;;17.40;99.90;;;;;;5111372;28;20102;-78
2022/07/18 06:10:02;;;;;;;7.53;4.90;;;17.50;99.90;;;;;;5111715;28;20070;-77
2022/07/18 06:12:30;;;;;;;7.18;4.28;;;17.60;99.90;;;;;;5112818;28;20031;-77
2022/07/18 06:14:56;;;;;;;10.23;5.13;;;17.70;99.90;;;;;;5111459;28;20069;-77
2022/07/18 06:17:22;;;;;;;8.57;5.55;;;17.80;99.90;;;;;;5109288;28;20411;-77
2022/07/18 06:19:48;;;;;;;20.60;5.43;;;17.90;99.90;;;;;;5112960;28;20472;-77
2022/07/18 06:22:14;;;;;;;9.50;5.50;;;17.90;99.90;;;;;;5092814;28;20031;-78
2022/07/18 06:24:39;;;;;;;10.40;5.55;;;18.00;99.90;;;;;;5110753;28;20471;-77
2022/07/18 06:27:05;;;;;;;9.23;4.70;;;18.00;99.90;;;;;;5109734;28;20118;-78
2022/07/18 06:29:32;;;;;;;11.88;5.15;;;18.10;99.90;;;;;;5110923;28;20023;-77
2022/07/18 06:31:58;;;;;;;8.90;4.85;;;18.10;99.90;;;;;;5109202;28;20096;-77
2022/07/18 06:34:24;;;;;;;11.25;5.30;;;18.20;99.90;;;;;;5093478;28;20345;-77
2022/07/18 06:36:49;;;;;;;11.38;5.50;;;18.20;99.90;;;;;;5110559;28;20028;-78
2022/07/18 06:39:18;;;;;;;9.60;5.13;;;18.30;99.90;;;;;;5092613;28;20024;-76
2022/07/18 06:41:44;;;;;;;15.55;6.15;;;18.30;99.90;;;;;;5111534;28;20020;-76
2022/07/18 06:44:10;;;;;;;10.18;5.45;;;18.30;99.90;;;;;;5111390;28;20024;-77
2022/07/18 06:46:36;;;;;;;10.07;5.20;;;18.50;99.90;;;;;;5110943;28;20038;-78
2022/07/18 06:49:03;;;;;;;11.38;5.55;;;18.50;99.90;;;;;;5111125;28;20510;-79
2022/07/18 06:51:29;;;;;;;10.52;5.25;;;18.60;99.90;;;;;;5113075;28;20023;-78
2022/07/18 06:53:55;;;;;;;9.23;5.22;;;18.80;99.90;;;;;;5114206;28;20103;-78
2022/07/18 06:56:21;;;;;;;10.27;5.30;;;18.90;99.90;;;;;;5114676;28;20027;-77
2022/07/18 06:58:48;;;;;;;11.23;5.70;;;19.10;99.90;;;;;;5111861;28;20077;-77
2022/07/18 07:01:16;;;;;;;10.02;5.15;;;19.20;99.90;;;;;;5112366;28;20102;-77
2022/07/18 07:03:42;;;;;;;6.25;4.57;;;19.40;99.90;;;;;;5112768;28;20035;-77
2022/07/18 07:06:08;;;;;;;14.40;5.32;;;19.50;99.90;;;;;;5115210;28;20023;-77
2022/07/18 07:08:34;;;;;;;11.40;5.10;;;19.60;99.90;;;;;;5116865;28;20077;-78
2022/07/18 07:11:00;;;;;;;10.73;5.43;;;19.60;99.90;;;;;;5120990;28;20036;-77
2022/07/18 07:13:26;;;;;;;12.90;5.50;;;19.70;99.90;;;;;;5116453;28;20061;-76
2022/07/18 07:15:51;;;;;;;12.52;6.00;;;19.80;99.90;;;;;;5115817;28;20066;-77
2022/07/18 07:18:17;;;;;;;10.98;5.88;;;19.90;99.90;;;;;;5113753;28;20024;-77
2022/07/18 07:20:43;;;;;;;10.00;5.15;;;20.10;99.90;;;;;;5095621;28;20069;-76
2022/07/18 07:23:09;;;;;;;9.50;6.07;;;20.20;99.90;;;;;;5114347;28;20020;-76
2022/07/18 07:25:36;;;;;;;9.55;5.50;;;20.30;99.90;;;;;;5113906;28;20031;-76
2022/07/18 07:28:03;;;;;;;14.88;5.95;;;20.20;99.90;;;;;;5112170;28;20570;-77
2022/07/18 07:30:29;;;;;;;10.02;4.95;;;20.30;99.90;;;;;;5113358;28;20023;-77
2022/07/18 07:32:55;;;;;;;8.77;5.70;;;20.30;99.80;;;;;;5114039;28;20040;-78
2022/07/18 07:35:21;;;;;;;10.00;5.65;;;20.30;99.90;;;;;;5115436;28;20027;-77
2022/07/18 07:37:58;;;;;;;10.48;5.47;;;20.40;99.90;;;;;;5114082;28;20042;-78
2022/07/18 07:40:27;;;;;;;11.75;5.20;;;20.40;98.80;;;;;;5095695;28;20077;-76
2022/07/18 07:43:03;;;;;;;9.68;6.13;;;20.40;99.50;;;;;;5111677;28;20020;-78
2022/07/18 07:45:29;;;;;;;9.27;5.40;;;20.40;98.80;;;;;;5096298;28;20020;-78
2022/07/18 07:47:55;;;;;;;8.90;5.75;;;20.40;98.60;;;;;;5095744;28;20031;-79
2022/07/18 07:50:20;;;;;;;7.95;5.10;;;20.50;99.00;;;;;;5096453;28;20024;-79
2022/07/18 07:52:46;;;;;;;14.77;6.28;;;20.70;99.00;;;;;;5112750;28;20024;-79
2022/07/18 07:55:12;;;;;;;12.65;6.70;;;20.80;97.80;;;;;;5113443;28;20055;-78
2022/07/18 07:57:37;;;;;;;9.98;5.97;;;20.90;96.80;;;;;;5113518;28;20143;-77
2022/07/18 08:00:08;;;;;;;9.07;5.65;;;21.10;97.30;;;;;;5111101;28;20031;-77
2022/07/18 08:02:34;;;;;;;;;;;21.30;97.10;;;;;;5111950;28;20072;-78
2022/07/18 08:05:00;;;;;;;10.73;6.15;;;21.30;96.90;;;;;;5094527;28;19907;-79
2022/07/18 08:07:26;;;;;;;11.80;6.43;;;21.30;96.90;;;;;;5113343;28;20020;-77
2022/07/18 08:09:51;;;;;;;12.73;6.50;;;21.20;95.00;;;;;;5113521;28;20034;-77
2022/07/18 08:12:17;;;;;;;8.80;5.38;;;21.20;95.90;;;;;;5108284;28;20031;-77
2022/07/18 08:14:43;;;;;;;7.78;5.25;;;21.30;96.10;;;;;;5111310;28;20447;-78
2022/07/18 08:17:09;;;;;;;10.48;5.68;;;21.30;96.20;;;;;;5113620;28;20418;-78
2022/07/18 08:19:35;;;;;;;9.27;6.00;;;21.40;96.20;;;;;;5111275;28;20028;-78
2022/07/18 08:22:01;;;;;;;10.85;6.03;;;21.50;95.70;;;;;;5111864;28;20028;-78
2022/07/18 08:24:26;;;;;;;9.55;5.53;;;21.60;94.90;;;;;;5111637;28;20020;-78
2022/07/18 08:26:52;;;;;;;12.90;5.72;;;21.70;94.30;;;;;;5112814;28;20072;-78
2022/07/18 08:29:18;;;;;;;9.02;4.57;;;21.80;94.40;;;;;;5093735;28;20024;-78
2022/07/18 08:31:44;;;;;;;10.07;5.18;;;21.90;93.40;;;;;;5111034;28;20106;-78
2022/07/18 08:34:09;;;;;;;6.57;4.10;;;22.10;94.20;;;;;;5093622;28;20030;-78
2022/07/18 08:36:35;;;;;;;13.63;5.60;;;22.10;94.20;;;;;;5113364;28;20579;-78
2022/07/18 08:39:01;;;;;;;16.35;6.97;;;22.00;93.10;;;;;;5111074;28;20503;-79
2022/07/18 08:41:28;;;;;;;20.10;7.15;;;21.90;93.80;;;;;;5111058;28;20577;-77
2022/07/18 08:43:53;;;;;;;12.73;5.00;;;21.90;94.40;;;;;;5114059;28;20438;-78
2022/07/18 08:46:21;;;;;;;8.43;4.68;;;21.80;92.50;;;;;;5112496;28;20103;-76
2022/07/18 08:48:48;;;;;;;9.23;4.60;;;21.90;93.20;;;;;;5094110;28;20027;-77
2022/07/18 08:51:15;;;;;;;8.38;4.20;;;22.00;94.00;;;;;;5113439;28;20023;-78
2022/07/18 08:53:40;;;;;;;9.68;5.45;;;22.10;93.30;;;;;;5113129;28;20487;-76
2022/07/18 08:56:06;;;;;;;9.40;4.68;;;22.20;92.90;;;;;;5115909;28;20027;-77
2022/07/18 08:58:32;;;;;;;8.23;5.00;;;22.30;92.80;;;;;;5117933;28;20024;-77
2022/07/18 09:00:58;;;;;;;10.57;4.72;;;22.40;92.80;;;;;;5111492;28;20031;-77
2022/07/18 09:03:24;;;;;;;7.13;4.10;;;22.30;93.20;;;;;;5112369;28;20023;-76
2022/07/18 09:06:14;;;;;;;8.15;4.80;;;22.40;93.40;;;;;;5112200;28;20031;-77
2022/07/18 09:08:58;;;;;;;8.00;4.45;;;22.40;93.50;;;;;;5111531;28;20023;-77
2022/07/18 09:11:24;;;;;;;8.43;4.35;;;22.40;93.40;;;;;;5110897;28;20024;-77
2022/07/18 09:13:50;;;;;;;8.52;4.10;;;22.50;93.30;;;;;;5089758;28;20046;-78
2022/07/18 09:16:16;;;;;;;6.30;3.95;;;22.50;91.00;;;;;;5111763;28;20472;-78
2022/07/18 09:18:43;;;;;;;8.18;4.45;;;22.50;91.40;;;;;;5117539;28;20023;-78
2022/07/18 09:21:18;;;;;;;6.55;3.95;;;22.50;92.00;;;;;;5126089;28;20024;-78
2022/07/18 09:23:48;;;;;;;8.25;4.95;;;22.60;92.70;;;;;;5112487;28;20031;-78
2022/07/18 09:26:43;;;;;;;6.72;3.90;;;22.60;91.40;;;;;;5111480;28;20096;-77
2022/07/18 09:29:14;;;;;;;5.88;3.60;;;22.80;91.90;;;;;;5099026;28;20118;-77
2022/07/18 09:31:49;;;;;;;7.80;4.10;;;22.80;91.70;;;;;;5094379;28;20031;-77
2022/07/18 09:34:31;;;;;;;5.05;3.95;;;22.90;91.90;;;;;;5110281;28;20533;-77
2022/07/18 09:36:58;;;;;;;7.25;4.32;;;22.90;91.90;;;;;;5112435;28;20033;-77
2022/07/18 09:39:23;;;;;;;6.68;4.22;;;22.90;91.10;;;;;;5111106;28;20391;-77
2022/07/18 09:41:49;;;;;;;5.05;3.78;;;23.00;90.90;;;;;;5111706;28;20023;-77
2022/07/18 09:44:18;;;;;;;5.28;3.70;;;23.00;90.80;;;;;;5110832;28;20062;-77
2022/07/18 09:47:04;;;;;;;6.60;4.47;;;23.10;91.30;;;;;;5111217;28;20024;-77
2022/07/18 09:49:31;;;;;;;6.95;4.05;;;23.10;91.60;;;;;;5110669;28;20081;-76
2022/07/18 09:52:08;;;;;;;7.22;4.00;;;23.10;91.40;;;;;;5110991;28;20051;-77
2022/07/18 09:54:39;;;;;;;6.72;3.53;;;23.10;90.70;;;;;;5102728;28;20035;-77
2022/07/18 09:57:06;;;;;;;6.78;3.45;;;23.20;91.00;;;;;;5109972;28;20032;-77
2022/07/18 09:59:32;;;;;;;6.97;4.28;;;23.40;90.80;;;;;;5109962;28;20024;-76
2022/07/18 10:01:59;;;;;;;6.95;3.47;;;23.60;90.50;;;;;;5110939;28;20027;-76
2022/07/18 10:04:25;;;;;;;4.85;3.10;;;23.70;90.20;;;;;;5110252;28;20050;-78
2022/07/18 10:06:51;;;;;;;4.55;3.05;;;23.90;89.60;;;;;;5112656;28;20090;-77
2022/07/18 10:09:17;;;;;;;4.63;3.17;;;24.10;90.00;;;;;;5110785;28;20028;-77
2022/07/18 10:11:43;;;;;;;5.55;3.30;;;24.10;90.10;;;;;;5110580;28;20080;-77
2022/07/18 10:14:09;;;;;;;4.90;3.42;;;24.20;88.70;;;;;;5110620;28;20080;-78
2022/07/18 10:16:37;;;;;;;4.60;3.22;;;24.10;87.00;;;;;;5110622;28;20069;-79
2022/07/18 10:19:03;;;;;;;5.43;3.38;;;24.10;87.10;;;;;;5110861;28;20388;-78
2022/07/18 10:21:30;;;;;;;8.68;3.75;;;24.10;86.90;;;;;;5109696;28;20023;-77
2022/07/18 10:23:59;;;;;;;4.10;3.15;;;24.10;85.40;;;;;;5109438;28;20472;-77
2022/07/18 10:26:26;;;;;;;7.55;3.83;;;24.10;86.70;;;;;;5109177;28;20028;-78
2022/07/18 10:28:55;;;;;;;6.20;3.28;;;24.10;86.30;;;;;;5091565;28;20487;-78
2022/07/18 10:31:25;;;;;;;4.30;3.17;;;24.20;86.80;;;;;;5111826;28;20082;-77
2022/07/18 10:33:52;;;;;;;5.65;3.15;;;24.30;86.00;;;;;;5110613;28;20544;-77
2022/07/18 10:36:22;;;;;;;5.03;3.45;;;24.40;85.90;;;;;;5109398;28;20497;-77
2022/07/18 10:39:07;;;;;;;6.93;3.92;;;24.70;86.70;;;;;;5109049;28;20027;-77
2022/07/18 10:42:01;;;;;;;8.80;3.55;;;25.00;85.30;;;;;;5111182;28;20016;-77
2022/07/18 10:44:29;;;;;;;8.63;4.32;;;25.10;78.60;;;;;;5108414;28;20057;-77
2022/07/18 10:47:23;;;;;;;6.97;3.97;;;25.10;75.20;;;;;;5108606;28;20106;-77
2022/07/18 10:49:52;;;;;;;8.50;3.83;;;25.10;76.10;;;;;;5111476;28;20023;-78
2022/07/18 10:52:33;;;;;;;6.38;3.97;;;25.40;79.00;;;;;;5093221;28;20070;-79
2022/07/18 10:55:17;;;;;;;7.18;4.30;;;25.50;79.90;;;;;;5110324;28;20055;-78
2022/07/18 10:58:05;;;;;;;6.18;3.58;;;25.70;76.70;;;;;;5110431;28;20023;-78
2022/07/18 11:00:36;;;;;;;7.55;4.45;;;25.80;77.60;;;;;;5117512;28;20041;-77
2022/07/18 11:03:08;;;;;;;5.10;3.75;;;25.90;76.50;;;;;;5110527;28;20020;-79
2022/07/18 11:05:50;;;;;;;9.50;4.13;;;26.00;77.60;;;;;;5111978;28;20038;-77
2022/07/18 11:08:18;;;;;;;7.60;4.03;;;26.10;76.50;;;;;;5092685;28;20024;-78
2022/07/18 11:10:44;;;;;;;8.68;4.80;;;26.40;76.80;;;;;;5112893;28;20028;-78
2022/07/18 11:15:58;;;;;;;7.15;4.60;;;26.40;70.00;;;;;;5110489;28;20103;-78
2022/07/18 11:18:25;;;;;;;7.85;4.72;;;26.20;70.70;;;;;;5112831;28;20039;-79
2022/07/18 11:20:51;;;;;;;7.75;5.07;;;26.10;71.00;;;;;;5112035;28;20502;-77
2022/07/18 11:23:23;;;;;;;7.22;5.07;;;26.10;69.40;;;;;;5112732;28;20475;-78
2022/07/18 11:25:51;;;;;;;9.82;5.13;;;26.00;69.70;;;;;;5111893;28;20107;-78
2022/07/18 11:28:18;;;;;;;9.15;5.95;;;26.00;70.20;;;;;;5095200;28;20024;-77
2022/07/18 11:30:44;;;;;;;9.00;5.88;;;26.10;68.20;;;;;;5120971;28;20486;-76
2022/07/18 11:33:22;;;;;;;6.57;5.45;;;26.20;67.20;;;;;;5114986;28;20579;-78
2022/07/18 11:35:49;;;;;;;7.20;5.18;;;26.40;67.30;;;;;;5110630;28;20027;-78
2022/07/18 11:38:15;;;;;;;7.93;5.10;;;26.40;66.70;;;;;;5111878;28;20042;-79
2022/07/18 11:40:49;;;;;;;7.80;4.70;;;26.40;64.20;;;;;;5114959;28;20030;-78
2022/07/18 11:43:26;;;;;;;7.13;4.70;;;26.50;66.40;;;;;;5094870;28;20035;-78
2022/07/18 11:46:06;;;;;;;7.65;4.88;;;27.00;65.50;;;;;;5113174;28;20108;-78
2022/07/18 11:48:33;;;;;;;6.55;4.70;;;27.20;63.60;;;;;;5114149;28;20093;-79
2022/07/18 11:51:00;;;;;;;8.60;4.95;;;27.20;63.30;;;;;;5112893;28;20391;-79
2022/07/18 11:53:26;;;;;;;8.20;5.35;;;27.20;63.20;;;;;;5112240;28;20395;-78
2022/07/18 11:55:54;;;;;;;10.05;6.15;;;27.10;63.30;;;;;;5113838;28;20030;-78
2022/07/18 11:58:19;;;;;;;7.68;4.78;;;27.10;64.90;;;;;;5095687;28;20028;-78
2022/07/18 12:00:46;;;;;;;53.55;34.22;;;27.20;63.40;;;;;;5112443;28;20031;-77
2022/07/18 12:03:16;;;;;;;122.90;86.18;;;27.30;62.60;;;;;;5113488;28;20072;-77
2022/07/18 12:05:51;;;;;;;16.55;10.90;;;27.20;64.30;;;;;;5113234;28;20094;-78
2022/07/18 12:08:31;;;;;;;17.25;13.82;;;27.10;60.90;;;;;;5112562;28;20068;-77
2022/07/18 12:11:34;;;;;;;6.47;5.47;;;27.20;62.30;;;;;;5109777;28;20027;-80
2022/07/18 12:14:08;;;;;;;6.90;4.50;;;27.20;63.40;;;;;;5103311;28;20031;-79
2022/07/18 12:16:45;;;;;;;7.60;4.93;;;27.10;62.90;;;;;;5093751;28;20028;-78
2022/07/18 12:19:16;;;;;;;5.32;4.10;;;27.40;63.50;;;;;;5121519;27;20039;-79
2022/07/18 12:21:42;;;;;;;6.65;4.50;;;27.90;63.90;;;;;;5113318;28;20077;-78
2022/07/18 12:24:30;;;;;;;7.03;4.75;;;28.40;63.20;;;;;;5112345;28;20023;-78
2022/07/18 12:27:13;;;;;;;7.50;4.07;;;28.80;58.40;;;;;;5107518;28;20102;-79
2022/07/18 12:29:56;;;;;;;9.63;4.40;;;29.20;57.60;;;;;;5113489;28;20027;-78
2022/07/18 12:32:52;;;;;;;7.90;3.90;;;29.60;57.40;;;;;;5114136;28;20510;-78
2022/07/18 12:35:30;;;;;;;6.22;4.50;;;30.40;58.30;;;;;;5101049;28;20031;-79
2022/07/18 12:38:08;;;;;;;6.53;4.93;;;31.00;58.00;;;;;;5116427;28;20034;-77
2022/07/18 12:40:57;;;;;;;9.40;4.05;;;31.50;56.20;;;;;;5115492;28;20438;-78
2022/07/18 12:43:29;;;;;;;6.15;4.20;;;31.90;53.30;;;;;;5114017;28;20026;-78
2022/07/18 12:45:56;;;;;;;7.28;4.20;;;32.10;53.50;;;;;;5115219;28;20529;-78
2022/07/18 12:48:22;;;;;;;5.53;3.88;;;32.00;54.20;;;;;;5113797;28;20498;-77
2022/07/18 12:51:06;;;;;;;6.90;3.70;;;32.80;54.10;;;;;;5115492;28;20127;-79
2022/07/18 12:53:35;;;;;;;9.60;4.22;;;33.10;50.50;;;;;;5117598;28;20027;-78
2022/07/18 12:56:02;;;;;;;8.30;4.05;;;32.90;53.00;;;;;;5096061;28;20049;-79